createdAt,value
2023-01-10T00:02:30.080Z,1.80
2023-01-10T00:05:16.120Z,1.95
2023-01-10T00:08:02.162Z,2.05
2023-01-10T00:10:48.323Z,2.15
2023-01-10T00:13:33.653Z,1.70
2023-01-10T00:16:19.143Z,2.03
2023-01-10T00:19:05.506Z,2.30
2023-01-10T00:21:50.674Z,1.80
2023-01-10T00:24:36.278Z,2.30
2023-01-10T00:27:24.369Z,2.25
2023-01-10T00:30:14.272Z,1.63
2023-01-10T00:32:59.679Z,2.63
2023-01-10T00:35:45.434Z,2.00
2023-01-10T00:38:33.945Z,1.98
2023-01-10T00:41:38.115Z,2.17
2023-01-10T00:44:23.593Z,2.75
2023-01-10T00:47:08.890Z,2.20
2023-01-10T00:49:54.319Z,2.08
2023-01-10T00:52:39.725Z,1.90
2023-01-10T00:55:25.090Z,2.22
2023-01-10T00:58:11.782Z,2.47
2023-01-10T01:00:57.398Z,2.38
2023-01-10T01:03:42.933Z,2.30
2023-01-10T01:06:28.452Z,2.33
2023-01-10T01:09:14.666Z,1.42
2023-01-10T01:11:59.806Z,1.92
2023-01-10T01:14:45.216Z,1.42
2023-01-10T01:17:30.645Z,2.08
2023-01-10T01:20:18.292Z,1.90
2023-01-10T01:23:03.616Z,1.95
2023-01-10T01:25:53.800Z,1.90
2023-01-10T01:28:39.313Z,1.50
2023-01-10T01:31:24.791Z,1.80
2023-01-10T01:34:10.211Z,2.20
2023-01-10T01:36:57.097Z,1.83
2023-01-10T01:39:42.195Z,2.50
2023-01-10T01:42:35.690Z,1.92
2023-01-10T01:45:38.775Z,2.30
2023-01-10T01:48:41.360Z,2.00
2023-01-10T01:51:30.589Z,2.17
2023-01-10T01:54:18.464Z,2.20
2023-01-10T01:57:09.665Z,2.60
2023-01-10T01:59:55.812Z,2.08
2023-01-10T02:03:02.164Z,2.88
2023-01-10T02:05:48.452Z,2.20
2023-01-10T02:08:34.731Z,2.40
2023-01-10T02:11:20.257Z,1.83
2023-01-10T02:14:06.933Z,2.47
2023-01-10T02:16:52.681Z,2.70
2023-01-10T02:19:54.208Z,2.55
2023-01-10T02:23:26.758Z,2.53
2023-01-10T02:26:17.945Z,2.63
2023-01-10T02:29:27.343Z,2.70
2023-01-10T02:32:48.025Z,2.88
2023-01-10T02:41:57.630Z,3.15
2023-01-10T02:44:52.047Z,3.30
2023-01-10T02:47:39.529Z,3.03
2023-01-10T02:50:42.535Z,2.30
2023-01-10T02:56:57.770Z,2.10
2023-01-10T03:00:04.615Z,2.20
2023-01-10T03:03:12.914Z,2.05
2023-01-10T03:06:18.037Z,2.88
2023-01-10T03:09:21.628Z,2.20
2023-01-10T03:12:14.708Z,2.53
2023-01-10T03:17:51.730Z,2.83
2023-01-10T03:20:38.805Z,3.03
2023-01-10T03:23:24.755Z,2.40
2023-01-10T03:26:11.551Z,2.53
2023-01-10T03:29:04.614Z,2.53
2023-01-10T03:31:55.080Z,2.10
2023-01-10T03:34:40.914Z,2.78
2023-01-10T03:37:38.607Z,2.30
2023-01-10T03:40:43.137Z,2.70
2023-01-10T03:43:59.458Z,2.15
2023-01-10T03:47:06.035Z,2.22
2023-01-10T03:49:56.378Z,2.55
2023-01-10T03:52:42.716Z,2.30
2023-01-10T03:55:29.895Z,2.22
2023-01-10T03:58:17.394Z,2.40
2023-01-10T04:01:02.846Z,2.00
2023-01-10T04:03:48.329Z,2.35
2023-01-10T04:06:33.762Z,2.25
2023-01-10T04:09:19.202Z,2.10
2023-01-10T04:12:04.708Z,2.60
2023-01-10T04:14:50.120Z,2.83
2023-01-10T04:17:35.442Z,2.38
2023-01-10T04:20:20.949Z,2.72
2023-01-10T04:23:06.427Z,2.90
2023-01-10T04:25:51.815Z,2.55
2023-01-10T04:28:37.354Z,2.92
2023-01-10T04:31:23.442Z,2.78
2023-01-10T04:34:09.871Z,2.38
2023-01-10T04:36:55.056Z,2.83
2023-01-10T04:39:40.472Z,3.22
2023-01-10T04:42:26.037Z,3.08
2023-01-10T04:45:13.468Z,2.03
2023-01-10T04:48:00.042Z,3.33
2023-01-10T04:50:52.886Z,2.65
2023-01-10T04:56:23.716Z,2.50
2023-01-10T04:59:10.401Z,2.78
2023-01-10T05:01:57.361Z,2.25
2023-01-10T05:04:43.018Z,2.20
2023-01-10T05:07:28.464Z,2.63
2023-01-10T05:10:13.994Z,2.75
2023-01-10T05:12:59.388Z,2.60
2023-01-10T05:15:44.897Z,2.10
2023-01-10T05:18:30.276Z,2.50
2023-01-10T05:21:16.024Z,2.78
2023-01-10T05:24:01.528Z,2.65
2023-01-10T05:26:46.866Z,2.30
2023-01-10T05:29:34.117Z,2.30
2023-01-10T05:32:19.274Z,2.22
2023-01-10T05:35:05.166Z,2.05
2023-01-10T05:37:50.409Z,2.30
2023-01-10T05:40:35.719Z,2.03
2023-01-10T05:43:21.212Z,2.53
2023-01-10T05:46:06.670Z,2.38
2023-01-10T05:48:53.211Z,2.38
2023-01-10T05:51:38.887Z,2.20
2023-01-10T05:54:23.962Z,2.40
2023-01-10T05:57:09.519Z,2.10
2023-01-10T05:59:54.990Z,2.55
2023-01-10T06:02:40.582Z,2.40
2023-01-10T06:05:26.068Z,2.38
2023-01-10T06:08:11.567Z,2.53
2023-01-10T06:10:57.062Z,2.65
2023-01-10T06:13:42.414Z,2.60
2023-01-10T06:16:28.047Z,2.42
2023-01-10T06:19:13.493Z,2.20
2023-01-10T06:21:59.235Z,2.45
2023-01-10T06:24:44.711Z,2.45
2023-01-10T06:27:29.881Z,2.20
2023-01-10T06:30:15.534Z,2.08
2023-01-10T06:33:05.777Z,2.30
2023-01-10T06:35:50.860Z,2.83
2023-01-10T06:38:36.274Z,1.90
2023-01-10T06:41:21.866Z,2.50
2023-01-10T06:44:07.254Z,2.65
2023-01-10T06:46:52.825Z,2.75
2023-01-10T06:49:38.219Z,2.33
2023-01-10T06:52:23.753Z,2.67
2023-01-10T06:55:09.674Z,1.80
2023-01-10T06:57:57.071Z,2.08
2023-01-10T07:00:42.632Z,2.03
2023-01-10T07:03:28.089Z,1.85
2023-01-10T07:06:13.639Z,2.50
2023-01-10T07:08:58.816Z,1.92
2023-01-10T07:11:44.378Z,2.20
2023-01-10T07:14:29.507Z,2.78
2023-01-10T07:17:14.830Z,2.70
2023-01-10T07:20:00.590Z,2.28
2023-01-10T07:22:57.403Z,2.80
2023-01-10T07:25:42.463Z,2.90
2023-01-10T07:28:27.801Z,2.50
2023-01-10T07:31:13.644Z,2.80
2023-01-10T07:33:59.325Z,2.47
2023-01-10T07:36:44.657Z,2.33
2023-01-10T07:39:30.005Z,2.50
2023-01-10T07:42:15.474Z,2.60
2023-01-10T07:45:00.811Z,2.60
2023-01-10T07:47:46.308Z,2.55
2023-01-10T07:50:34.409Z,2.42
2023-01-10T07:53:19.534Z,2.83
2023-01-10T07:56:05.627Z,2.80
2023-01-10T07:58:51.110Z,2.60
2023-01-10T08:01:36.591Z,2.80
2023-01-10T08:04:21.803Z,2.80
2023-01-10T08:07:07.314Z,3.00
2023-01-10T08:09:52.792Z,2.35
2023-01-10T08:12:38.295Z,2.35
2023-01-10T08:15:23.835Z,2.10
2023-01-10T08:18:09.175Z,1.90
2023-01-10T08:20:55.514Z,2.05
2023-01-10T08:23:41.004Z,2.00
2023-01-10T08:26:26.257Z,2.00
2023-01-10T08:29:11.681Z,1.92
2023-01-10T08:31:57.397Z,2.20
2023-01-10T08:34:42.560Z,1.98
2023-01-10T08:37:28.612Z,2.15
2023-01-10T08:40:14.012Z,1.95
2023-01-10T08:43:05.226Z,2.33
2023-01-10T08:45:50.784Z,2.88
2023-01-10T08:48:36.287Z,3.08
2023-01-10T08:51:21.769Z,2.63
2023-01-10T08:54:07.341Z,2.85
2023-01-10T08:56:52.860Z,2.53
2023-01-10T08:59:38.617Z,2.35
2023-01-10T09:02:24.067Z,2.50
2023-01-10T09:05:22.315Z,2.60
2023-01-10T09:08:11.967Z,2.90
2023-01-10T09:11:01.438Z,2.63
2023-01-10T09:13:50.510Z,2.97
2023-01-10T09:16:36.009Z,3.33
2023-01-10T09:19:21.553Z,2.92
2023-01-10T09:22:07.115Z,3.28
2023-01-10T09:24:52.716Z,3.30
2023-01-10T09:27:38.221Z,2.88
2023-01-10T09:30:23.794Z,3.20
2023-01-10T09:33:09.576Z,3.40
2023-01-10T09:35:58.176Z,3.30
2023-01-10T09:38:44.571Z,3.28
2023-01-10T09:41:51.414Z,2.90
2023-01-10T09:44:48.614Z,2.92
2023-01-10T09:47:54.155Z,3.40
2023-01-10T09:51:15.856Z,3.28
2023-01-10T09:54:12.237Z,3.20
2023-01-10T09:57:01.127Z,2.72
2023-01-10T09:59:50.958Z,3.20
2023-01-10T10:02:47.934Z,3.28
2023-01-10T10:05:33.493Z,3.67
2023-01-10T10:08:20.189Z,3.88
2023-01-10T10:11:25.509Z,3.33
2023-01-10T10:14:52.894Z,3.95
2023-01-10T10:18:04.159Z,3.55
2023-01-10T10:21:07.163Z,3.05
2023-01-10T10:24:17.517Z,4.35
2023-01-10T10:27:22.529Z,4.20
2023-01-10T10:30:42.619Z,3.80
2023-01-10T10:33:49.326Z,3.70
2023-01-10T10:36:46.256Z,3.83
2023-01-10T10:39:47.468Z,3.45
2023-01-10T10:42:37.117Z,3.70
2023-01-10T10:45:41.639Z,3.72
2023-01-10T10:48:33.708Z,3.92
2023-01-10T10:51:39.723Z,4.25
2023-01-10T10:54:24.742Z,3.80
2023-01-10T10:57:13.757Z,3.70
2023-01-10T11:00:01.495Z,3.80
2023-01-10T11:03:01.721Z,3.90
2023-01-10T11:05:48.240Z,3.22
2023-01-10T11:08:39.778Z,3.70
2023-01-10T11:11:34.065Z,3.28
2023-01-10T11:14:46.619Z,3.60
2023-01-10T11:17:34.430Z,3.50
2023-01-10T11:20:19.702Z,3.63
2023-01-10T11:23:05.582Z,3.85
2023-01-10T11:25:50.930Z,3.78
2023-01-10T11:28:37.196Z,3.75
2023-01-10T11:31:29.493Z,3.33
2023-01-10T11:34:30.010Z,3.60
2023-01-10T11:37:22.260Z,2.95
2023-01-10T11:40:25.292Z,3.58
2023-01-10T11:43:30.562Z,3.25
2023-01-10T11:46:21.027Z,3.78
2023-01-10T11:49:14.705Z,3.85
2023-01-10T11:52:04.829Z,3.30
2023-01-10T11:54:50.590Z,3.17
2023-01-10T11:57:36.450Z,3.10
2023-01-10T12:00:22.283Z,3.45
2023-01-10T12:03:23.442Z,3.17
2023-01-10T12:06:17.595Z,3.60
2023-01-10T12:09:03.357Z,2.97
2023-01-10T12:12:02.453Z,3.65
2023-01-10T12:14:48.260Z,3.90
2023-01-10T12:17:37.682Z,2.80
2023-01-10T12:20:25.352Z,3.08
2023-01-10T12:23:16.381Z,3.25
2023-01-10T12:26:11.449Z,3.25
2023-01-10T12:29:05.105Z,3.20
2023-01-10T12:31:53.833Z,2.88
2023-01-10T12:34:46.646Z,3.28
2023-01-10T12:37:46.303Z,3.10
2023-01-10T12:40:49.092Z,3.42
2023-01-10T12:43:57.794Z,3.55
2023-01-10T12:47:12.786Z,3.00
2023-01-10T12:50:10.881Z,2.88
2023-01-10T12:53:22.915Z,2.70
2023-01-10T12:56:14.265Z,2.90
2023-01-10T12:59:23.760Z,3.28
2023-01-10T13:02:21.789Z,3.47
2023-01-10T13:05:14.895Z,2.80
2023-01-10T13:08:06.366Z,3.47
2023-01-10T13:10:55.764Z,3.05
2023-01-10T13:13:43.470Z,2.97
2023-01-10T13:16:34.823Z,2.65
2023-01-10T13:19:24.688Z,2.60
2023-01-10T13:22:22.810Z,2.88
2023-01-10T13:25:34.848Z,2.75
2023-01-10T13:28:25.941Z,2.83
2023-01-10T13:31:32.605Z,3.00
2023-01-10T13:34:20.049Z,2.72
2023-01-10T13:37:13.369Z,2.83
2023-01-10T13:40:00.689Z,3.10
2023-01-10T13:43:04.738Z,2.70
2023-01-10T13:46:16.140Z,3.33
2023-01-10T13:49:03.364Z,3.15
2023-01-10T13:52:35.622Z,3.25
2023-01-10T13:55:38.758Z,2.65
2023-01-10T13:58:42.486Z,2.47
2023-01-10T14:01:54.549Z,3.28
2023-01-10T14:04:47.192Z,2.83
2023-01-10T14:07:49.936Z,2.97
2023-01-10T14:10:35.453Z,3.20
2023-01-10T14:13:22.819Z,3.00
2023-01-10T14:16:36.731Z,3.65
2023-01-10T14:19:32.637Z,3.05
2023-01-10T14:22:26.273Z,2.70
2023-01-10T14:25:19.778Z,3.15
2023-01-10T14:28:15.946Z,2.97
2023-01-10T14:31:13.387Z,3.00
2023-01-10T14:34:00.158Z,3.10
2023-01-10T14:37:15.873Z,3.67
2023-01-10T14:40:04.186Z,3.22
2023-01-10T14:42:50.944Z,3.00
2023-01-10T14:45:51.661Z,3.65
2023-01-10T14:48:46.337Z,3.03
2023-01-10T14:51:31.899Z,3.78
2023-01-10T14:54:21.774Z,3.03
2023-01-10T14:57:23.152Z,3.78
2023-01-10T15:00:18.744Z,3.30
2023-01-10T15:03:04.415Z,3.20
2023-01-10T15:05:56.582Z,3.10
2023-01-10T15:08:41.716Z,3.60
2023-01-10T15:11:30.373Z,3.35
2023-01-10T15:14:18.900Z,3.60
2023-01-10T15:17:06.235Z,2.90
2023-01-10T15:19:52.682Z,3.08
2023-01-10T15:22:38.129Z,3.15
2023-01-10T15:25:38.391Z,3.45
2023-01-10T15:28:23.768Z,3.13
2023-01-10T15:31:11.325Z,3.38
2023-01-10T15:33:58.040Z,3.08
2023-01-10T15:36:48.402Z,3.13
2023-01-10T15:39:37.436Z,3.38
2023-01-10T15:42:23.178Z,3.70
2023-01-10T15:45:37.410Z,4.40
2023-01-10T15:48:31.369Z,2.92
2023-01-10T15:51:22.409Z,2.95
2023-01-10T15:54:29.441Z,3.30
2023-01-10T15:57:27.884Z,3.05
2023-01-10T16:00:17.147Z,3.17
2023-01-10T16:03:12.965Z,3.45
2023-01-10T16:06:00.136Z,3.20
2023-01-10T16:08:50.275Z,3.10
2023-01-10T16:12:07.179Z,3.58
2023-01-10T16:14:52.494Z,3.25
2023-01-10T16:17:38.314Z,3.08
2023-01-10T16:20:31.391Z,3.35
2023-01-10T16:23:20.253Z,3.67
2023-01-10T16:26:09.075Z,2.95
2023-01-10T16:28:54.241Z,2.53
2023-01-10T16:31:40.061Z,3.03
2023-01-10T16:34:26.092Z,2.80
2023-01-10T16:37:11.405Z,2.30
2023-01-10T16:39:56.882Z,2.80
2023-01-10T16:43:00.994Z,2.70
2023-01-10T16:45:52.208Z,2.58
2023-01-10T16:48:37.763Z,2.65
2023-01-10T16:51:26.245Z,2.42
2023-01-10T16:54:16.625Z,2.60
2023-01-10T16:57:02.178Z,2.70
2023-01-10T16:59:47.770Z,2.30
2023-01-10T17:02:33.178Z,2.60
2023-01-10T17:05:18.752Z,2.60
2023-01-10T17:08:04.667Z,2.78
2023-01-10T17:10:56.393Z,2.60
2023-01-10T17:13:43.461Z,2.60
2023-01-10T17:16:29.048Z,2.30
2023-01-10T17:19:14.242Z,2.60
2023-01-10T17:22:00.479Z,2.58
2023-01-10T17:24:45.640Z,2.97
2023-01-10T17:27:31.359Z,2.92
2023-01-10T17:30:17.073Z,2.90
2023-01-10T17:33:02.595Z,2.72
2023-01-10T17:35:48.517Z,2.83
2023-01-10T17:38:33.956Z,3.40
2023-01-10T17:41:19.246Z,3.17
2023-01-10T17:44:05.080Z,3.40
2023-01-10T17:46:50.502Z,3.67
2023-01-10T17:49:36.419Z,4.30
2023-01-10T17:52:21.925Z,4.97
2023-01-10T17:55:07.831Z,4.82
2023-01-10T17:57:54.040Z,5.78
2023-01-10T18:00:39.301Z,6.10
2023-01-10T18:03:25.316Z,7.80
2023-01-10T18:06:22.858Z,8.18
2023-01-10T18:09:08.874Z,7.80
2023-01-10T18:11:54.481Z,7.93
2023-01-10T18:14:39.963Z,7.70
2023-01-10T18:17:25.810Z,8.82
2023-01-10T18:20:12.115Z,9.63
2023-01-10T18:23:17.531Z,9.85
2023-01-10T18:26:05.700Z,10.65
2023-01-10T18:28:52.899Z,9.10
2023-01-10T18:31:39.293Z,10.70
2023-01-10T18:34:25.028Z,10.45
2023-01-10T18:37:11.279Z,10.65
2023-01-10T18:39:57.261Z,11.05
2023-01-10T18:42:43.329Z,10.38
2023-01-10T18:45:30.827Z,11.75
2023-01-10T18:48:17.101Z,11.00
2023-01-10T18:51:04.719Z,11.35
2023-01-10T18:53:52.815Z,11.70
2023-01-10T18:56:38.261Z,10.88
2023-01-10T18:59:23.981Z,13.68
2023-01-10T19:02:14.589Z,12.45
2023-01-10T19:05:00.168Z,14.55
2023-01-10T19:07:45.866Z,13.75
2023-01-10T19:10:49.833Z,15.63
2023-01-10T19:13:37.306Z,16.48
2023-01-10T19:16:32.432Z,17.00
2023-01-10T19:19:18.070Z,17.27
2023-01-10T19:22:03.611Z,16.05
2023-01-10T19:24:49.405Z,16.23
2023-01-10T19:27:35.433Z,16.25
2023-01-10T19:30:21.161Z,16.05
2023-01-10T19:33:06.790Z,15.40
2023-01-10T19:35:52.451Z,16.85
2023-01-10T19:38:38.382Z,16.38
2023-01-10T19:41:25.465Z,15.45
2023-01-10T19:44:13.501Z,16.00
2023-01-10T19:46:59.265Z,17.20
2023-01-10T19:49:45.500Z,19.60
2023-01-10T19:52:31.322Z,18.27
2023-01-10T19:55:17.005Z,17.05
2023-01-10T19:58:03.444Z,17.02
2023-01-10T20:00:48.880Z,17.80
2023-01-10T20:03:34.654Z,19.58
2023-01-10T20:06:24.334Z,18.13
2023-01-10T20:09:12.837Z,16.73
2023-01-10T20:11:58.582Z,15.85
2023-01-10T20:14:43.973Z,15.90
2023-01-10T20:17:33.250Z,15.15
2023-01-10T20:20:20.604Z,14.40
2023-01-10T20:23:07.169Z,14.07
2023-01-10T20:25:57.053Z,14.45
2023-01-10T20:28:43.784Z,12.75
2023-01-10T20:31:30.470Z,13.43
2023-01-10T20:34:16.260Z,12.90
2023-01-10T20:37:02.027Z,13.30
2023-01-10T20:39:47.243Z,13.40
2023-01-10T20:42:33.187Z,13.32
2023-01-10T20:45:18.656Z,13.10
2023-01-10T20:48:04.372Z,12.43
2023-01-10T20:50:49.663Z,13.30
2023-01-10T20:53:35.047Z,14.63
2023-01-10T20:56:23.384Z,12.85
2023-01-10T20:59:08.822Z,13.85
2023-01-10T21:01:54.835Z,14.00
2023-01-10T21:04:40.601Z,13.68
2023-01-10T21:07:26.140Z,12.95
2023-01-10T21:10:11.655Z,13.15
2023-01-10T21:12:57.113Z,13.63
2023-01-10T21:15:44.203Z,13.02
2023-01-10T21:18:37.694Z,12.80
2023-01-10T21:21:23.184Z,12.60
2023-01-10T21:24:09.455Z,12.93
2023-01-10T21:26:54.826Z,13.05
2023-01-10T21:29:40.380Z,12.32
2023-01-10T21:32:25.992Z,10.88
2023-01-10T21:35:11.205Z,12.00
2023-01-10T21:37:57.519Z,13.40
2023-01-10T21:40:42.651Z,12.50
2023-01-10T21:43:30.903Z,13.88
2023-01-10T21:46:16.608Z,12.02
2023-01-10T21:49:03.509Z,12.05
2023-01-10T21:51:48.880Z,12.57
2023-01-10T21:54:34.468Z,13.35
2023-01-10T21:57:22.190Z,13.20
2023-01-10T22:00:08.209Z,12.00
2023-01-10T22:03:00.091Z,13.05
2023-01-10T22:05:45.531Z,12.82
2023-01-10T22:08:31.132Z,12.70
2023-01-10T22:11:16.773Z,12.52
2023-01-10T22:14:02.477Z,12.05
2023-01-10T22:16:47.731Z,11.50
2023-01-10T22:19:33.296Z,11.32
2023-01-10T22:22:18.901Z,12.20
2023-01-10T22:25:05.096Z,11.52
2023-01-10T22:27:50.575Z,11.60
2023-01-10T22:30:35.960Z,10.57
2023-01-10T22:33:22.545Z,13.27
2023-01-10T22:36:16.576Z,11.02
2023-01-10T22:39:01.940Z,11.88
2023-01-10T22:41:47.188Z,11.60
2023-01-10T22:44:32.643Z,11.73
2023-01-10T22:47:17.995Z,11.52
2023-01-10T22:50:03.577Z,10.93
2023-01-10T22:52:49.952Z,10.77
2023-01-10T22:55:35.455Z,10.18
2023-01-10T22:58:21.816Z,10.20
2023-01-10T23:01:08.034Z,9.55
2023-01-10T23:03:53.422Z,9.00
2023-01-10T23:06:38.833Z,9.05
2023-01-10T23:09:24.608Z,8.23
2023-01-10T23:12:09.705Z,8.85
2023-01-10T23:14:55.221Z,8.82
2023-01-10T23:17:40.786Z,7.82
2023-01-10T23:20:26.227Z,8.23
2023-01-10T23:23:11.656Z,7.85
2023-01-10T23:26:15.435Z,7.57
2023-01-10T23:29:00.615Z,7.57
2023-01-10T23:31:49.818Z,8.82
2023-01-10T23:34:35.095Z,8.38
2023-01-10T23:37:20.274Z,7.57
2023-01-10T23:40:06.377Z,8.02
2023-01-10T23:42:51.766Z,8.10
2023-01-10T23:45:37.636Z,8.70
2023-01-10T23:48:23.093Z,9.63
2023-01-10T23:51:08.591Z,8.80
2023-01-10T23:53:53.848Z,8.93
2023-01-10T23:56:39.187Z,8.45
2023-01-10T23:59:24.759Z,8.10
